createdAt,value
2018-12-26T00:00:25.596Z,12.65
2018-12-26T00:02:56.377Z,12.65
2018-12-26T00:05:25.939Z,11.40
2018-12-26T00:07:55.724Z,15.08
2018-12-26T00:10:25.280Z,11.57
2018-12-26T00:12:54.814Z,14.00
2018-12-26T00:15:24.638Z,11.10
2018-12-26T00:17:54.265Z,14.13
2018-12-26T00:20:23.869Z,13.98
2018-12-26T00:22:53.447Z,14.05
2018-12-26T00:25:23.011Z,13.48
2018-12-26T00:27:52.415Z,12.23
2018-12-26T00:30:21.995Z,12.65
2018-12-26T00:32:51.461Z,11.20
2018-12-26T00:35:21.140Z,12.88
2018-12-26T00:37:50.759Z,13.20
2018-12-26T00:40:20.360Z,13.58
2018-12-26T00:42:49.864Z,12.20
2018-12-26T00:45:19.443Z,12.50
2018-12-26T00:47:48.978Z,12.65
2018-12-26T00:50:18.339Z,12.63
2018-12-26T00:52:47.856Z,13.55
2018-12-26T00:55:17.481Z,11.33
2018-12-26T00:57:46.967Z,12.00
2018-12-26T01:00:16.540Z,12.70
2018-12-26T01:02:46.091Z,14.25
2018-12-26T01:05:15.588Z,15.28
2018-12-26T01:07:45.262Z,13.43
2018-12-26T01:10:14.870Z,12.53
2018-12-26T01:12:44.331Z,12.73
2018-12-26T01:15:13.840Z,12.37
2018-12-26T01:17:43.546Z,12.03
2018-12-26T01:20:12.924Z,14.07
2018-12-26T01:22:42.488Z,14.07
2018-12-26T01:25:12.005Z,13.60
2018-12-26T01:27:41.613Z,13.68
2018-12-26T01:30:10.969Z,16.02
2018-12-26T01:32:40.566Z,15.43
2018-12-26T01:35:10.187Z,13.98
2018-12-26T01:37:39.623Z,13.58
2018-12-26T01:40:10.088Z,15.25
2018-12-26T01:42:39.638Z,15.25
2018-12-26T01:45:09.219Z,13.25
2018-12-26T01:47:38.738Z,13.38
2018-12-26T01:50:08.616Z,16.67
2018-12-26T01:52:37.968Z,14.73
2018-12-26T01:55:07.491Z,13.45
2018-12-26T01:57:36.911Z,14.50
2018-12-26T02:00:07.284Z,14.28
2018-12-26T02:02:36.833Z,16.70
2018-12-26T02:05:06.616Z,14.47
2018-12-26T02:07:36.171Z,17.85
2018-12-26T02:10:06.975Z,16.00
2018-12-26T02:12:37.267Z,15.00
2018-12-26T02:15:07.011Z,17.27
2018-12-26T02:17:36.735Z,15.65
2018-12-26T02:20:07.512Z,15.13
2018-12-26T02:22:37.068Z,16.85
2018-12-26T02:25:06.859Z,16.32
2018-12-26T02:27:36.348Z,15.38
2018-12-26T02:30:06.507Z,17.55
2018-12-26T02:32:35.986Z,16.27
2018-12-26T02:35:05.475Z,16.52
2018-12-26T02:37:35.620Z,16.60
2018-12-26T02:40:05.787Z,15.40
2018-12-26T02:42:35.150Z,16.48
2018-12-26T02:45:05.430Z,17.07
2018-12-26T02:47:34.932Z,16.40
2018-12-26T02:50:07.393Z,16.65
2018-12-26T02:52:36.974Z,15.40
2018-12-26T02:55:06.685Z,15.70
2018-12-26T02:57:36.225Z,16.12
2018-12-26T03:00:06.466Z,14.60
2018-12-26T03:02:35.873Z,14.60
2018-12-26T03:05:05.703Z,16.70
2018-12-26T03:07:35.450Z,14.93
2018-12-26T03:10:05.274Z,16.60
2018-12-26T03:12:34.661Z,14.55
2018-12-26T03:15:04.555Z,13.98
2018-12-26T03:17:35.461Z,17.87
2018-12-26T03:20:05.144Z,15.90
2018-12-26T03:22:34.624Z,18.05
2018-12-26T03:25:04.416Z,16.00
2018-12-26T03:27:33.843Z,16.45
2018-12-26T03:30:03.225Z,18.10
2018-12-26T03:32:32.673Z,18.57
2018-12-26T03:35:02.293Z,18.42
2018-12-26T03:37:31.698Z,17.82
2018-12-26T03:40:01.514Z,14.53
2018-12-26T03:42:30.996Z,17.67
2018-12-26T03:45:02.376Z,19.75
2018-12-26T03:47:32.919Z,19.57
2018-12-26T03:50:02.688Z,20.15
2018-12-26T03:52:32.260Z,19.15
2018-12-26T03:55:01.698Z,19.15
2018-12-26T03:57:31.325Z,19.17
2018-12-26T04:00:00.757Z,18.75
2018-12-26T04:02:30.437Z,19.90
2018-12-26T04:04:59.825Z,18.15
2018-12-26T04:07:29.341Z,18.23
2018-12-26T04:09:58.766Z,20.08
2018-12-26T04:12:28.305Z,21.07
2018-12-26T04:14:57.888Z,20.97
2018-12-26T04:17:27.637Z,20.10
2018-12-26T04:19:57.583Z,18.35
2018-12-26T04:22:27.169Z,19.80
2018-12-26T04:24:56.788Z,19.02
2018-12-26T04:27:26.484Z,19.35
2018-12-26T04:29:56.007Z,18.30
2018-12-26T04:32:25.582Z,18.57
2018-12-26T04:34:55.216Z,18.92
2018-12-26T04:37:24.698Z,17.82
2018-12-26T04:39:54.379Z,16.77
2018-12-26T04:42:24.149Z,16.55
2018-12-26T04:44:53.886Z,18.40
2018-12-26T04:47:23.243Z,18.20
2018-12-26T04:49:52.754Z,20.23
2018-12-26T04:52:22.116Z,18.65
2018-12-26T04:54:51.730Z,19.12
2018-12-26T04:57:24.805Z,17.85
2018-12-26T04:59:52.479Z,17.67
2018-12-26T05:02:22.119Z,20.60
2018-12-26T05:04:51.926Z,18.92
2018-12-26T05:07:21.332Z,21.00
2018-12-26T05:09:50.787Z,19.12
2018-12-26T05:12:20.496Z,21.77
2018-12-26T05:14:49.849Z,19.45
2018-12-26T05:17:19.376Z,18.95
2018-12-26T05:19:48.998Z,17.73
2018-12-26T05:22:18.531Z,20.02
2018-12-26T05:24:49.953Z,19.35
2018-12-26T05:27:19.613Z,17.77
2018-12-26T05:29:49.065Z,19.17
2018-12-26T05:32:18.689Z,18.20
2018-12-26T05:34:48.282Z,17.60
2018-12-26T05:37:17.909Z,16.45
2018-12-26T05:39:47.258Z,19.27
2018-12-26T05:42:16.830Z,19.92
2018-12-26T05:44:46.401Z,17.40
2018-12-26T05:47:15.855Z,17.92
2018-12-26T05:49:45.379Z,18.80
2018-12-26T05:52:14.909Z,17.92
2018-12-26T05:54:44.307Z,19.82
2018-12-26T05:57:14.018Z,17.23
2018-12-26T05:59:43.512Z,19.30
2018-12-26T06:02:13.041Z,21.30
2018-12-26T06:04:42.627Z,19.82
2018-12-26T06:07:12.114Z,22.15
2018-12-26T06:09:41.809Z,17.00
2018-12-26T06:12:11.560Z,19.75
2018-12-26T06:14:41.317Z,19.42
2018-12-26T06:17:10.686Z,22.62
2018-12-26T06:19:40.334Z,20.27
2018-12-26T06:22:09.760Z,20.68
2018-12-26T06:24:39.121Z,21.75
2018-12-26T06:27:08.499Z,21.35
2018-12-26T06:29:38.238Z,20.50
2018-12-26T06:32:07.584Z,20.95
2018-12-26T06:34:37.185Z,22.55
2018-12-26T06:37:06.617Z,21.33
2018-12-26T06:39:36.915Z,20.52
2018-12-26T06:42:06.281Z,18.75
2018-12-26T06:44:36.229Z,21.05
2018-12-26T06:47:05.109Z,17.57
2018-12-26T06:49:34.447Z,17.55
2018-12-26T06:52:04.725Z,17.30
2018-12-26T06:54:34.653Z,18.80
2018-12-26T06:57:04.105Z,17.87
2018-12-26T06:59:33.593Z,20.45
2018-12-26T07:02:03.242Z,18.95
2018-12-26T07:04:32.699Z,20.15
2018-12-26T07:07:02.485Z,18.77
2018-12-26T07:09:31.846Z,17.70
2018-12-26T07:12:01.254Z,16.42
2018-12-26T07:14:30.932Z,21.05
2018-12-26T07:17:00.376Z,17.90
2018-12-26T07:19:30.082Z,20.88
2018-12-26T07:21:59.467Z,20.17
2018-12-26T07:24:29.006Z,20.43
2018-12-26T07:26:58.548Z,20.77
2018-12-26T07:29:28.223Z,19.98
2018-12-26T07:31:57.744Z,19.65
2018-12-26T07:34:27.238Z,19.90
2018-12-26T07:36:56.733Z,22.58
2018-12-26T07:39:26.272Z,17.37
2018-12-26T07:41:55.844Z,20.27
2018-12-26T07:44:25.378Z,18.65
2018-12-26T07:46:54.843Z,22.75
2018-12-26T07:49:24.408Z,20.17
2018-12-26T07:51:53.945Z,20.40
2018-12-26T07:54:23.501Z,19.92
2018-12-26T07:56:53.142Z,18.98
2018-12-26T07:59:22.622Z,20.02
2018-12-26T08:01:52.163Z,18.37
2018-12-26T08:04:21.705Z,18.10
2018-12-26T08:06:51.135Z,17.75
2018-12-26T08:09:20.761Z,16.00
2018-12-26T08:11:50.435Z,17.98
2018-12-26T08:14:20.177Z,15.50
2018-12-26T08:16:49.797Z,17.65
2018-12-26T08:19:19.183Z,17.50
2018-12-26T08:21:48.735Z,18.00
2018-12-26T08:24:18.284Z,19.35
2018-12-26T08:26:47.742Z,19.02
2018-12-26T08:29:17.373Z,18.42
2018-12-26T08:31:47.393Z,17.80
2018-12-26T08:34:17.465Z,20.30
2018-12-26T08:36:46.930Z,18.55
2018-12-26T08:39:16.447Z,18.05
2018-12-26T08:41:47.079Z,19.15
2018-12-26T08:44:16.692Z,16.75
2018-12-26T08:46:46.050Z,17.52
2018-12-26T08:49:15.433Z,16.10
2018-12-26T08:51:45.396Z,17.95
2018-12-26T08:54:14.896Z,16.70
2018-12-26T08:56:44.371Z,17.75
2018-12-26T08:59:13.852Z,17.90
2018-12-26T09:01:43.367Z,16.62
2018-12-26T09:04:12.746Z,17.82
2018-12-26T09:06:42.231Z,18.80
2018-12-26T09:09:11.735Z,17.05
2018-12-26T09:11:41.477Z,18.15
2018-12-26T09:14:10.915Z,16.55
2018-12-26T09:16:40.318Z,17.95
2018-12-26T09:19:09.968Z,17.30
2018-12-26T09:21:39.576Z,18.23
2018-12-26T09:24:09.103Z,19.55
2018-12-26T09:26:40.341Z,18.32
2018-12-26T09:29:10.040Z,18.48
2018-12-26T09:31:39.726Z,19.73
2018-12-26T09:34:09.118Z,18.57
2018-12-26T09:36:38.605Z,18.90
2018-12-26T09:39:09.053Z,18.37
2018-12-26T09:41:38.856Z,19.92
2018-12-26T09:44:08.668Z,18.70
2018-12-26T09:46:38.087Z,16.45
2018-12-26T09:49:07.724Z,17.05
2018-12-26T09:51:37.079Z,19.27
2018-12-26T09:54:06.773Z,16.30
2018-12-26T09:56:36.598Z,17.73
2018-12-26T09:59:06.445Z,21.00
2018-12-26T10:01:35.848Z,17.90
2018-12-26T10:04:05.410Z,17.52
2018-12-26T10:06:34.967Z,19.40
2018-12-26T10:09:06.360Z,18.52
2018-12-26T10:11:36.017Z,16.25
2018-12-26T10:14:05.603Z,16.67
2018-12-26T10:16:35.152Z,17.77
2018-12-26T10:19:04.629Z,17.52
2018-12-26T10:21:34.432Z,18.80
2018-12-26T10:24:03.834Z,18.77
2018-12-26T10:26:33.229Z,17.32
2018-12-26T10:29:03.214Z,17.42
2018-12-26T10:31:32.553Z,17.80
2018-12-26T10:34:02.076Z,20.12
2018-12-26T10:36:31.453Z,18.65
2018-12-26T10:39:01.057Z,17.20
2018-12-26T10:41:30.661Z,16.85
2018-12-26T10:44:00.083Z,17.45
2018-12-26T10:46:29.614Z,16.90
2018-12-26T10:48:59.199Z,18.65
2018-12-26T10:51:28.812Z,18.37
2018-12-26T10:53:58.267Z,20.72
2018-12-26T10:56:27.805Z,17.75
2018-12-26T10:58:57.427Z,17.42
2018-12-26T11:01:26.839Z,19.67
2018-12-26T11:03:56.451Z,21.60
2018-12-26T11:06:26.058Z,17.67
2018-12-26T11:08:55.410Z,19.90
2018-12-26T11:11:24.760Z,16.10
2018-12-26T11:13:54.216Z,15.65
2018-12-26T11:16:23.868Z,16.37
2018-12-26T11:18:54.230Z,17.32
2018-12-26T11:21:23.871Z,18.92
2018-12-26T11:23:53.358Z,16.60
2018-12-26T11:26:22.733Z,17.40
2018-12-26T11:28:53.476Z,16.90
2018-12-26T11:31:23.009Z,14.55
2018-12-26T11:33:52.563Z,17.62
2018-12-26T11:36:22.178Z,17.17
2018-12-26T11:38:51.924Z,17.40
2018-12-26T11:41:21.556Z,26.40
2018-12-26T11:43:50.955Z,18.37
2018-12-26T11:46:22.194Z,17.67
2018-12-26T11:48:51.951Z,16.00
2018-12-26T11:51:21.522Z,15.70
2018-12-26T11:53:51.061Z,17.55
2018-12-26T11:56:20.414Z,17.02
2018-12-26T11:58:49.896Z,17.82
2018-12-26T12:01:19.565Z,16.73
2018-12-26T12:03:49.084Z,15.53
2018-12-26T12:06:18.441Z,16.10
2018-12-26T12:08:48.096Z,16.45
2018-12-26T12:11:17.484Z,14.70
2018-12-26T12:13:48.241Z,21.35
2018-12-26T12:16:17.657Z,17.42
2018-12-26T12:18:47.024Z,13.72
2018-12-26T12:21:16.728Z,15.68
2018-12-26T12:23:46.135Z,15.00
2018-12-26T12:26:15.485Z,14.90
2018-12-26T12:28:44.874Z,16.30
2018-12-26T12:31:14.233Z,16.62
2018-12-26T12:33:43.934Z,16.07
2018-12-26T12:36:13.323Z,16.90
2018-12-26T12:38:42.898Z,15.18
2018-12-26T12:41:12.414Z,17.05
2018-12-26T12:43:42.037Z,15.03
2018-12-26T12:46:11.437Z,17.05
2018-12-26T12:48:41.045Z,15.43
2018-12-26T12:51:10.522Z,17.75
2018-12-26T12:53:40.262Z,16.90
2018-12-26T12:56:12.165Z,16.35
2018-12-26T12:58:40.945Z,15.95
2018-12-26T13:01:10.683Z,16.50
2018-12-26T13:03:46.525Z,17.60
2018-12-26T13:06:11.481Z,17.07
2018-12-26T13:08:41.138Z,15.38
2018-12-26T13:11:10.689Z,17.27
2018-12-26T13:13:40.300Z,16.35
2018-12-26T13:16:09.759Z,17.73
2018-12-26T13:18:39.138Z,18.12
2018-12-26T13:21:08.733Z,16.55
2018-12-26T13:23:38.216Z,16.62
2018-12-26T13:26:08.046Z,18.75
2018-12-26T13:28:37.391Z,16.37
2018-12-26T13:31:06.900Z,17.32
2018-12-26T13:33:36.335Z,16.30
2018-12-26T13:36:06.072Z,16.32
2018-12-26T13:38:35.460Z,16.10
2018-12-26T13:41:04.882Z,18.30
2018-12-26T13:43:34.347Z,15.58
2018-12-26T13:46:03.830Z,16.30
2018-12-26T13:48:33.422Z,15.30
2018-12-26T13:51:03.107Z,15.85
2018-12-26T13:53:33.017Z,16.40
2018-12-26T13:56:03.064Z,17.02
2018-12-26T13:58:32.448Z,21.52
2018-12-26T14:01:02.264Z,19.05
2018-12-26T14:03:32.331Z,17.12
2018-12-26T14:06:02.082Z,16.70
2018-12-26T14:08:31.461Z,16.82
2018-12-26T14:11:00.948Z,17.87
2018-12-26T14:13:30.711Z,17.82
2018-12-26T14:16:00.445Z,17.98
2018-12-26T14:18:29.871Z,19.10
2018-12-26T14:20:59.407Z,19.90
2018-12-26T14:23:28.875Z,19.55
2018-12-26T14:25:58.469Z,16.07
2018-12-26T14:28:28.446Z,17.85
2018-12-26T14:30:58.212Z,16.52
2018-12-26T14:33:27.728Z,17.75
2018-12-26T14:35:59.463Z,17.52
2018-12-26T14:38:29.136Z,16.95
2018-12-26T14:40:58.561Z,19.37
2018-12-26T14:43:28.311Z,18.52
2018-12-26T14:45:58.174Z,17.82
2018-12-26T14:48:28.043Z,16.57
2018-12-26T14:50:57.437Z,19.55
2018-12-26T14:53:27.012Z,19.82
2018-12-26T14:55:56.803Z,19.92
2018-12-26T14:58:26.474Z,20.97
2018-12-26T15:00:56.241Z,17.35
2018-12-26T15:03:25.718Z,18.98
2018-12-26T15:05:55.217Z,16.60
2018-12-26T15:08:24.654Z,19.92
2018-12-26T15:10:54.040Z,17.00
2018-12-26T15:13:23.443Z,18.92
2018-12-26T15:15:53.316Z,21.52
2018-12-26T15:18:22.845Z,18.85
2018-12-26T15:20:52.939Z,19.85
2018-12-26T15:23:22.321Z,17.85
2018-12-26T15:25:52.061Z,18.07
2018-12-26T15:28:21.633Z,19.52
2018-12-26T15:30:51.015Z,19.07
2018-12-26T15:33:20.402Z,21.20
2018-12-26T15:35:49.997Z,17.85
2018-12-26T15:38:19.822Z,20.92
2018-12-26T15:40:49.610Z,19.65
2018-12-26T15:43:19.287Z,21.25
2018-12-26T15:45:48.881Z,18.57
2018-12-26T15:48:18.421Z,19.10
2018-12-26T15:50:47.969Z,17.60
2018-12-26T15:53:17.365Z,18.95
2018-12-26T15:55:47.021Z,19.05
2018-12-26T15:58:16.452Z,18.65
2018-12-26T16:00:46.128Z,17.37
2018-12-26T16:03:15.502Z,17.45
2018-12-26T16:05:44.869Z,19.12
2018-12-26T16:08:14.247Z,18.92
2018-12-26T16:10:44.023Z,18.92
2018-12-26T16:13:13.431Z,19.98
2018-12-26T16:15:42.801Z,20.97
2018-12-26T16:18:12.391Z,21.20
2018-12-26T16:20:42.001Z,20.25
2018-12-26T16:23:11.431Z,22.00
2018-12-26T16:25:59.883Z,22.73
2018-12-26T16:28:29.410Z,18.45
2018-12-26T16:30:58.893Z,19.57
2018-12-26T16:33:28.645Z,20.23
2018-12-26T16:35:58.009Z,20.70
2018-12-26T16:38:27.417Z,20.90
2018-12-26T16:40:58.503Z,21.07
2018-12-26T16:43:27.852Z,20.48
2018-12-26T16:45:57.839Z,20.00
2018-12-26T16:48:27.630Z,20.43
2018-12-26T16:50:57.034Z,22.48
2018-12-26T16:53:26.661Z,20.80
2018-12-26T16:55:56.272Z,23.62
2018-12-26T16:58:25.941Z,23.22
2018-12-26T17:00:55.455Z,23.65
2018-12-26T17:03:25.027Z,20.62
2018-12-26T17:05:54.456Z,20.60
2018-12-26T17:08:24.105Z,22.82
2018-12-26T17:10:53.696Z,20.70
2018-12-26T17:13:23.329Z,21.68
2018-12-26T17:15:52.846Z,21.62
2018-12-26T17:18:22.333Z,20.75
2018-12-26T17:20:51.727Z,23.62
2018-12-26T17:23:21.068Z,20.55
2018-12-26T17:25:50.613Z,20.50
2018-12-26T17:28:20.025Z,20.65
2018-12-26T17:30:49.430Z,24.63
2018-12-26T17:33:18.909Z,22.48
2018-12-26T17:35:48.622Z,21.97
2018-12-26T17:38:18.140Z,21.37
2018-12-26T17:40:47.574Z,22.05
2018-12-26T17:43:17.036Z,22.25
2018-12-26T17:45:46.481Z,23.20
2018-12-26T17:48:16.060Z,24.32
2018-12-26T17:50:50.959Z,25.25
2018-12-26T17:53:42.078Z,23.15
2018-12-26T17:56:48.420Z,24.67
2018-12-26T18:00:04.138Z,23.05
2018-12-26T18:02:42.712Z,23.50
2018-12-26T18:05:12.276Z,24.32
2018-12-26T18:07:41.878Z,25.10
2018-12-26T18:10:11.467Z,22.52
2018-12-26T18:12:41.325Z,23.98
2018-12-26T18:15:12.235Z,23.87
2018-12-26T18:17:42.103Z,23.62
2018-12-26T18:20:12.003Z,21.50
2018-12-26T18:22:41.782Z,22.30
2018-12-26T18:25:11.161Z,23.30
2018-12-26T18:27:40.551Z,22.77
2018-12-26T18:30:11.537Z,23.52
2018-12-26T18:32:41.313Z,25.08
2018-12-26T18:35:11.258Z,24.50
2018-12-26T18:37:40.773Z,21.85
2018-12-26T18:40:10.274Z,25.10
2018-12-26T18:42:39.846Z,26.48
2018-12-26T18:45:09.969Z,26.65
2018-12-26T18:47:39.581Z,25.65
2018-12-26T18:50:11.250Z,23.73
2018-12-26T18:52:40.598Z,21.75
2018-12-26T18:55:10.149Z,22.30
2018-12-26T18:57:39.597Z,25.57
2018-12-26T19:00:11.895Z,27.67
2018-12-26T19:02:41.982Z,24.32
2018-12-26T19:05:12.337Z,23.35
2018-12-26T19:07:41.985Z,26.70
2018-12-26T19:10:12.112Z,24.75
2018-12-26T19:12:41.906Z,25.10
2018-12-26T19:15:11.414Z,26.15
2018-12-26T19:17:40.789Z,25.65
2018-12-26T19:20:11.480Z,27.50
2018-12-26T19:22:40.873Z,25.65
2018-12-26T19:25:10.612Z,25.23
2018-12-26T19:27:39.990Z,25.60
2018-12-26T19:30:12.312Z,23.87
2018-12-26T19:32:42.114Z,26.75
2018-12-26T19:35:14.180Z,25.57
2018-12-26T19:37:43.852Z,24.10
2018-12-26T19:40:13.417Z,28.05
2018-12-26T19:42:42.911Z,28.55
2018-12-26T19:45:12.449Z,29.63
2018-12-26T19:47:41.880Z,22.55
2018-12-26T19:50:12.078Z,27.95
2018-12-26T19:52:41.487Z,26.07
2018-12-26T19:55:11.683Z,27.62
2018-12-26T19:57:41.191Z,28.12
2018-12-26T20:00:11.714Z,25.70
2018-12-26T20:02:41.454Z,28.27
2018-12-26T20:05:12.283Z,26.50
2018-12-26T20:07:42.072Z,26.02
2018-12-26T20:10:12.217Z,25.20
2018-12-26T20:12:41.951Z,25.17
2018-12-26T20:15:11.519Z,27.87
2018-12-26T20:17:40.940Z,28.90
2018-12-26T20:20:10.578Z,25.15
2018-12-26T20:22:40.122Z,25.45
2018-12-26T20:25:09.719Z,26.40
2018-12-26T20:27:39.211Z,25.32
2018-12-26T20:30:10.413Z,26.42
2018-12-26T20:32:40.054Z,29.05
2018-12-26T20:35:09.767Z,31.05
2018-12-26T20:37:39.365Z,25.62
2018-12-26T20:40:09.658Z,28.52
2018-12-26T20:42:39.499Z,27.85
2018-12-26T20:45:09.829Z,28.87
2018-12-26T20:47:39.428Z,26.55
2018-12-26T20:50:10.071Z,29.48
2018-12-26T20:52:39.422Z,25.62
2018-12-26T20:55:09.202Z,27.98
2018-12-26T20:57:38.734Z,27.22
2018-12-26T21:00:10.837Z,30.57
2018-12-26T21:02:40.508Z,27.60
2018-12-26T21:05:14.922Z,32.08
2018-12-26T21:07:44.886Z,28.40
2018-12-26T21:10:14.343Z,30.48
2018-12-26T21:12:43.700Z,33.95
2018-12-26T21:15:13.320Z,29.32
2018-12-26T21:17:42.734Z,28.55
2018-12-26T21:20:13.578Z,27.07
2018-12-26T21:22:43.269Z,30.17
2018-12-26T21:25:12.834Z,28.15
2018-12-26T21:27:42.303Z,28.12
2018-12-26T21:30:14.528Z,28.25
2018-12-26T21:32:43.960Z,28.02
2018-12-26T21:35:13.553Z,30.57
2018-12-26T21:37:43.005Z,29.18
2018-12-26T21:40:12.393Z,26.23
2018-12-26T21:42:42.072Z,29.82
2018-12-26T21:45:12.425Z,29.92
2018-12-26T21:47:42.027Z,29.87
2018-12-26T21:50:12.882Z,27.67
2018-12-26T21:52:42.498Z,29.63
2018-12-26T21:55:11.889Z,31.23
2018-12-26T21:57:41.293Z,29.02
2018-12-26T22:00:11.336Z,27.82
2018-12-26T22:02:40.738Z,30.20
2018-12-26T22:05:10.201Z,30.70
2018-12-26T22:07:39.696Z,30.43
2018-12-26T22:10:09.261Z,29.87
2018-12-26T22:12:38.676Z,28.77
2018-12-26T22:15:08.719Z,27.48
2018-12-26T22:17:38.316Z,25.15
2018-12-26T22:20:09.410Z,29.45
2018-12-26T22:22:38.836Z,27.75
2018-12-26T22:25:08.381Z,27.15
2018-12-26T22:27:37.726Z,26.27
2018-12-26T22:30:09.394Z,30.62
2018-12-26T22:32:39.028Z,27.98
2018-12-26T22:35:08.551Z,29.32
2018-12-26T22:37:37.924Z,29.85
2018-12-26T22:40:07.598Z,29.80
2018-12-26T22:42:36.924Z,27.60
2018-12-26T22:45:06.680Z,29.05
2018-12-26T22:47:36.127Z,28.90
2018-12-26T22:50:06.274Z,29.02
2018-12-26T22:52:35.895Z,28.25
2018-12-26T22:55:05.905Z,31.68
2018-12-26T22:57:35.489Z,30.95
2018-12-26T23:00:07.683Z,29.02
2018-12-26T23:02:38.984Z,27.40
2018-12-26T23:05:08.460Z,30.57
2018-12-26T23:07:37.854Z,29.23
2018-12-26T23:10:07.964Z,29.67
2018-12-26T23:12:37.357Z,30.77
2018-12-26T23:15:07.615Z,30.82
2018-12-26T23:17:39.219Z,28.23
2018-12-26T23:20:08.708Z,30.97
2018-12-26T23:22:38.274Z,30.62
2018-12-26T23:25:07.905Z,29.10
2018-12-26T23:27:37.353Z,30.72
2018-12-26T23:30:07.341Z,34.50
2018-12-26T23:32:37.199Z,30.92
2018-12-26T23:35:06.721Z,31.23
2018-12-26T23:37:36.274Z,34.25
2018-12-26T23:40:05.989Z,31.45
2018-12-26T23:42:35.732Z,28.05
2018-12-26T23:45:05.979Z,33.48
2018-12-26T23:47:35.572Z,29.45
2018-12-26T23:50:05.347Z,32.70
2018-12-26T23:52:35.274Z,30.75
2018-12-26T23:55:05.930Z,31.20
2018-12-26T23:57:35.540Z,32.93
